createdAt,value
2023-02-03T00:13:17.132Z,0.80
2023-02-03T00:28:19.075Z,0.80
2023-02-03T00:43:21.680Z,0.80
2023-02-03T00:58:24.803Z,0.80
2023-02-03T01:13:26.736Z,0.80
2023-02-03T01:28:28.713Z,0.70
2023-02-03T01:43:33.803Z,0.60
2023-02-03T01:58:39.923Z,0.90
2023-02-03T02:13:44.100Z,1.00
2023-02-03T02:29:13.587Z,0.90
2023-02-03T02:44:37.791Z,1.10
2023-02-03T02:59:39.749Z,1.30
2023-02-03T03:14:45.550Z,1.10
2023-02-03T03:29:53.553Z,0.90
2023-02-03T03:45:03.035Z,1.00
2023-02-03T04:00:09.725Z,1.20
2023-02-03T04:15:11.647Z,1.10
2023-02-03T04:30:14.090Z,1.20
2023-02-03T04:45:16.073Z,1.30
2023-02-03T05:00:18.349Z,1.40
2023-02-03T05:15:20.300Z,1.40
2023-02-03T05:30:22.272Z,1.50
2023-02-03T05:45:24.276Z,1.50
2023-02-03T06:00:26.610Z,1.70
2023-02-03T06:15:28.771Z,1.90
2023-02-03T06:30:31.111Z,1.80
2023-02-03T06:45:34.683Z,1.60
2023-02-03T07:00:36.687Z,1.70
2023-02-03T07:15:39.107Z,1.80
2023-02-03T07:30:41.313Z,1.50
2023-02-03T07:45:43.528Z,1.50
2023-02-03T08:00:45.567Z,1.50
2023-02-03T08:15:48.309Z,1.50
2023-02-03T08:30:50.787Z,1.50
2023-02-03T08:45:54.767Z,1.70
2023-02-03T09:00:56.935Z,2.00
2023-02-03T09:16:01.168Z,2.00
2023-02-03T09:31:04.668Z,2.50
2023-02-03T09:46:12.903Z,2.80
2023-02-03T10:01:17.190Z,2.90
2023-02-03T10:16:36.024Z,3.00
2023-02-03T10:31:39.129Z,3.00
2023-02-03T10:46:43.285Z,3.10
2023-02-03T11:01:49.151Z,3.30
2023-02-03T11:16:51.165Z,3.40
2023-02-03T11:31:55.900Z,3.60
2023-02-03T11:47:08.914Z,3.90
2023-02-03T12:02:48.375Z,3.90
2023-02-03T12:18:12.802Z,4.20
2023-02-03T12:33:30.828Z,4.50
2023-02-03T12:48:49.689Z,5.00
2023-02-03T13:04:01.066Z,5.60
2023-02-03T13:19:11.177Z,6.10
2023-02-03T13:34:50.799Z,6.20
2023-02-03T13:50:01.425Z,6.30
2023-02-03T14:05:04.351Z,6.50
2023-02-03T14:20:28.964Z,6.50
2023-02-03T14:35:35.228Z,6.50
2023-02-03T14:51:03.416Z,6.40
2023-02-03T15:06:06.231Z,6.10
2023-02-03T15:21:19.192Z,6.00
2023-02-03T15:36:35.546Z,6.00
2023-02-03T15:51:47.013Z,6.00
2023-02-03T16:06:51.180Z,6.00
2023-02-03T16:21:56.010Z,6.00
2023-02-03T16:37:16.377Z,6.00
2023-02-03T16:52:18.381Z,5.80
2023-02-03T17:07:20.318Z,5.50
2023-02-03T17:22:22.301Z,5.40
2023-02-03T17:37:24.348Z,5.40
2023-02-03T18:07:46.130Z,5.40
2023-02-03T18:22:48.160Z,5.30
2023-02-03T18:37:51.830Z,5.20
2023-02-03T18:52:55.348Z,5.40
2023-02-03T19:07:57.426Z,5.50
2023-02-03T19:22:59.438Z,5.60
2023-02-03T19:38:01.913Z,5.60
2023-02-03T19:53:04.482Z,5.70
2023-02-03T20:08:06.846Z,5.70
2023-02-03T20:23:08.905Z,5.70
2023-02-03T20:38:10.927Z,5.70
2023-02-03T20:53:24.261Z,5.70
2023-02-03T21:08:27.612Z,5.40
2023-02-03T21:23:40.404Z,5.40
2023-02-03T21:38:42.735Z,5.40
2023-02-03T21:53:54.461Z,5.40
2023-02-03T22:08:58.349Z,5.40
2023-02-03T22:24:00.449Z,5.40
2023-02-03T22:39:02.397Z,5.30
2023-02-03T22:54:04.986Z,5.40
2023-02-03T23:09:06.968Z,5.40
2023-02-03T23:24:08.940Z,5.30
2023-02-03T23:39:11.064Z,5.20
2023-02-03T23:54:13.041Z,5.30
